Frogsboro, North Carolina
Current Conditions -  °F | °C
As of 5:53 PM on Tuesday 27 Jan 2015 (Local Time) from KDAN Reporting Station
Clear Clear  
Wind Chill: 33°   Ceiling: Unl
Heat Index: 40°   Visibility: 10mi
Dew Point:   Wind: 10mph
Humidity: 25%   Direction: 330°NNW
Pressure: 29.86"   Gusts: NA
Location:  36.4125°N, 79.1919°W
Report Text: KDAN 272253Z AUTO 33009KT 10SM CLR 04/M14 A2986 RMK AO2 SLP109 T00441144
Loading
Personal Weather Stations






























Interactive Weather Map New forecast layout! Learn more

10-Day Weather Forecast

Advertisements
Track Severe Weather on mobile